EFKS

Kuusamo Airport

Kuusamo, Finland
METAR EFKS 191650Z 25012KT 9999 SCT041 14/07 Q0999
Observed Flight Rules
Aug-19 @ 16:50 UTC (22 minutes ago) Visual Flight Rules
Wind Visibility Clouds
250° at 12 knots 10,000+ meters
  • Scattered at 4,100' AGL
Temperatures Readings
Current 14°C / 57°F
Dewpoint 7°C / 45°F
Humidity 63%
Altimeter 29.5" Hg
Pressure 999 hPa
Elevation 263
METAR EFKS 191650Z 25012KT 9999 SCT041 14/07 Q0999
Observed Flight Rules
Aug-19 @ 16:50 UTC
(22 minutes ago)
VFR
Wind Visibility
250° at 12 knots 10,000+ meters
Clouds
  • Scattered at 4,100' AGL
Temperature Dewpoint
14°C / 57°F 7°C / 45°F
Humidity Altimeter Pressure
63% 29.5" Hg 999 hPa